createdAt,value
2022-12-08T00:01:35.628Z,4.67
2022-12-08T00:04:05.251Z,4.53
2022-12-08T00:06:52.508Z,5.00
2022-12-08T00:09:23.038Z,4.63
2022-12-08T00:11:56.819Z,4.93
2022-12-08T00:14:28.638Z,4.00
2022-12-08T00:16:57.669Z,3.27
2022-12-08T00:19:26.124Z,3.60
2022-12-08T00:21:54.828Z,3.07
2022-12-08T00:24:23.955Z,3.43
2022-12-08T00:26:51.984Z,3.33
2022-12-08T00:29:20.715Z,3.30
2022-12-08T00:31:50.182Z,2.63
2022-12-08T00:34:18.371Z,2.93
2022-12-08T00:36:46.421Z,2.67
2022-12-08T00:39:15.759Z,2.00
2022-12-08T00:41:57.760Z,2.03
2022-12-08T00:44:26.343Z,1.73
2022-12-08T00:46:55.755Z,1.83
2022-12-08T00:49:23.960Z,1.63
2022-12-08T00:51:52.021Z,1.77
2022-12-08T00:54:20.536Z,2.00
2022-12-08T00:56:49.185Z,1.80
2022-12-08T00:59:17.339Z,1.83
2022-12-08T01:01:46.280Z,1.50
2022-12-08T01:04:17.764Z,1.90
2022-12-08T01:06:46.325Z,1.97
2022-12-08T01:09:16.663Z,2.40
2022-12-08T01:11:45.573Z,2.30
2022-12-08T01:14:14.090Z,2.57
2022-12-08T01:16:42.510Z,2.50
2022-12-08T01:19:12.214Z,2.40
2022-12-08T01:21:42.703Z,2.50
2022-12-08T01:24:13.134Z,2.80
2022-12-08T01:26:41.208Z,2.60
2022-12-08T01:29:09.852Z,2.47
2022-12-08T01:31:37.851Z,2.20
2022-12-08T01:34:06.335Z,2.20
2022-12-08T01:36:37.144Z,2.33
2022-12-08T01:39:09.565Z,2.60
2022-12-08T01:41:40.310Z,2.30
2022-12-08T01:44:41.676Z,2.60
2022-12-08T01:47:10.364Z,2.93
2022-12-08T01:49:38.661Z,2.67
2022-12-08T01:52:12.166Z,3.00
2022-12-08T01:54:48.313Z,2.97
2022-12-08T01:57:19.848Z,2.70
2022-12-08T02:00:02.245Z,3.33
2022-12-08T02:02:41.114Z,2.87
2022-12-08T02:05:10.693Z,2.07
2022-12-08T02:07:39.166Z,2.00
2022-12-08T02:10:09.905Z,1.60
2022-12-08T02:12:37.953Z,1.50
2022-12-08T02:15:07.172Z,1.67
2022-12-08T02:17:50.320Z,1.40
2022-12-08T02:20:45.763Z,1.40
2022-12-08T02:23:23.603Z,1.40
2022-12-08T02:26:17.361Z,1.43
2022-12-08T02:29:10.493Z,1.47
2022-12-08T02:31:50.457Z,1.33
2022-12-08T02:34:28.753Z,1.33
2022-12-08T02:37:04.975Z,1.37
2022-12-08T02:39:39.499Z,1.47
2022-12-08T02:42:13.576Z,1.37
2022-12-08T02:44:44.645Z,1.70
2022-12-08T02:47:17.127Z,1.60
2022-12-08T02:49:47.101Z,1.60
2022-12-08T02:52:40.819Z,1.60
2022-12-08T02:55:14.394Z,1.80
2022-12-08T02:57:53.430Z,1.50
2022-12-08T03:00:23.220Z,1.30
2022-12-08T03:03:06.727Z,1.47
2022-12-08T03:05:58.943Z,1.47
2022-12-08T03:08:34.401Z,1.70
2022-12-08T03:11:07.765Z,1.10
2022-12-08T03:13:41.386Z,1.87
2022-12-08T03:16:13.062Z,2.40
2022-12-08T03:18:45.388Z,2.73
2022-12-08T03:21:17.021Z,3.43
2022-12-08T03:23:47.144Z,4.07
2022-12-08T03:26:26.220Z,3.33
2022-12-08T03:28:54.477Z,2.97
2022-12-08T03:31:26.090Z,3.13
2022-12-08T03:33:57.833Z,3.23
2022-12-08T03:36:27.354Z,2.53
2022-12-08T03:38:55.668Z,2.33
2022-12-08T03:41:24.188Z,2.13
2022-12-08T03:43:55.411Z,2.50
2022-12-08T03:48:53.904Z,1.60
2022-12-08T03:51:22.446Z,1.70
2022-12-08T03:53:52.208Z,1.57
2022-12-08T03:56:24.800Z,1.47
2022-12-08T03:58:53.178Z,1.10
2022-12-08T04:01:21.630Z,1.30
2022-12-08T04:03:50.119Z,1.53
2022-12-08T04:06:18.900Z,1.20
2022-12-08T04:08:47.253Z,1.30
2022-12-08T04:11:16.784Z,1.40
2022-12-08T04:13:45.061Z,1.43
2022-12-08T04:16:17.344Z,1.57
2022-12-08T04:18:45.921Z,1.40
2022-12-08T04:21:14.005Z,1.50
2022-12-08T04:23:42.374Z,1.47
2022-12-08T04:26:10.835Z,1.30
2022-12-08T04:28:40.312Z,1.13
2022-12-08T04:31:08.676Z,1.17
2022-12-08T04:33:36.900Z,0.87
2022-12-08T04:36:06.224Z,1.20
2022-12-08T04:38:34.673Z,1.20
2022-12-08T04:41:03.011Z,1.20
2022-12-08T04:43:31.252Z,1.00
2022-12-08T04:46:00.664Z,1.13
2022-12-08T04:48:28.776Z,1.03
2022-12-08T04:50:56.816Z,1.40
2022-12-08T04:53:26.701Z,1.10
2022-12-08T04:55:54.742Z,1.50
2022-12-08T04:58:23.083Z,1.20
2022-12-08T05:00:51.499Z,1.40
2022-12-08T05:03:28.108Z,1.50
2022-12-08T05:05:56.698Z,1.50
2022-12-08T05:08:24.730Z,1.23
2022-12-08T05:10:52.863Z,1.00
2022-12-08T05:13:20.968Z,1.30
2022-12-08T05:15:49.087Z,0.80
2022-12-08T05:18:17.246Z,1.00
2022-12-08T05:20:46.695Z,0.90
2022-12-08T05:23:14.773Z,1.10
2022-12-08T05:25:42.862Z,1.20
2022-12-08T05:28:39.569Z,1.37
2022-12-08T05:30:59.110Z,1.30
2022-12-08T05:33:27.232Z,1.17
2022-12-08T05:35:56.684Z,1.10
2022-12-08T05:38:24.745Z,0.97
2022-12-08T05:40:52.790Z,1.40
2022-12-08T05:43:20.814Z,1.97
2022-12-08T05:45:49.003Z,1.63
2022-12-08T05:48:17.175Z,1.20
2022-12-08T05:50:47.977Z,1.00
2022-12-08T05:53:18.362Z,1.20
2022-12-08T05:55:46.823Z,1.30
2022-12-08T05:58:16.776Z,1.00
2022-12-08T06:00:45.809Z,2.47
2022-12-08T06:03:14.261Z,2.87
2022-12-08T06:05:43.376Z,4.70
2022-12-08T06:08:11.738Z,2.30
2022-12-08T06:10:42.125Z,2.77
2022-12-08T06:13:10.565Z,1.70
2022-12-08T06:15:39.594Z,1.70
2022-12-08T06:18:08.077Z,5.03
2022-12-08T06:20:36.191Z,4.43
2022-12-08T06:23:04.375Z,9.60
2022-12-08T06:25:32.445Z,5.33
2022-12-08T06:28:01.964Z,8.50
2022-12-08T06:30:29.997Z,4.70
2022-12-08T06:32:58.030Z,4.60
2022-12-08T06:35:26.105Z,2.30
2022-12-08T06:37:54.158Z,1.77
2022-12-08T06:40:22.208Z,1.50
2022-12-08T06:42:50.222Z,1.40
2022-12-08T06:45:19.858Z,1.10
2022-12-08T06:47:47.921Z,1.37
2022-12-08T06:50:16.093Z,1.33
2022-12-08T06:52:56.905Z,1.30
2022-12-08T06:58:17.705Z,1.30
2022-12-08T07:00:47.283Z,1.10
2022-12-08T07:03:15.393Z,1.50
2022-12-08T07:05:43.429Z,1.33
2022-12-08T07:08:11.560Z,1.43
2022-12-08T07:10:39.759Z,1.40
2022-12-08T07:13:07.781Z,1.60
2022-12-08T07:15:35.792Z,1.40
2022-12-08T07:18:05.201Z,1.57
2022-12-08T07:20:33.262Z,1.40
2022-12-08T07:23:01.275Z,1.40
2022-12-08T07:25:29.327Z,1.77
2022-12-08T07:27:57.392Z,1.87
2022-12-08T07:30:25.540Z,2.47
2022-12-08T07:32:53.597Z,2.80
2022-12-08T07:35:23.209Z,2.67
2022-12-08T07:37:51.370Z,2.80
2022-12-08T07:40:19.701Z,2.93
2022-12-08T07:42:47.661Z,3.00
2022-12-08T07:45:15.809Z,2.90
2022-12-08T07:47:43.875Z,3.30
2022-12-08T07:50:12.175Z,2.67
2022-12-08T07:52:41.598Z,2.60
2022-12-08T07:55:10.686Z,2.73
2022-12-08T07:57:38.745Z,4.00
2022-12-08T08:00:08.337Z,7.30
2022-12-08T08:02:45.409Z,7.90
2022-12-08T08:05:13.974Z,5.47
2022-12-08T08:07:44.561Z,9.00
2022-12-08T08:10:13.119Z,4.90
2022-12-08T08:12:41.424Z,3.00
2022-12-08T08:15:10.561Z,2.30
2022-12-08T08:17:39.259Z,2.30
2022-12-08T08:20:09.357Z,2.53
2022-12-08T08:22:38.656Z,2.87
2022-12-08T08:25:08.954Z,2.70
2022-12-08T08:27:37.061Z,3.10
2022-12-08T08:30:05.867Z,3.17
2022-12-08T08:32:34.922Z,3.80
2022-12-08T08:35:03.339Z,2.77
2022-12-08T08:37:31.498Z,2.80
2022-12-08T08:39:59.569Z,2.80
2022-12-08T08:42:29.200Z,2.57
2022-12-08T08:44:58.320Z,2.40
2022-12-08T08:47:26.330Z,2.10
2022-12-08T08:49:54.386Z,3.50
2022-12-08T08:52:26.514Z,3.00
2022-12-08T08:54:54.616Z,2.50
2022-12-08T08:57:25.772Z,2.00
2022-12-08T08:59:57.220Z,2.17
2022-12-08T09:02:25.559Z,4.50
2022-12-08T09:04:53.916Z,8.07
2022-12-08T09:07:22.030Z,3.60
2022-12-08T09:09:50.825Z,3.70
2022-12-08T09:12:19.235Z,2.60
2022-12-08T09:14:47.266Z,3.13
2022-12-08T09:17:17.779Z,2.00
2022-12-08T09:19:46.015Z,2.30
2022-12-08T09:22:16.547Z,1.83
2022-12-08T09:24:44.662Z,1.50
2022-12-08T09:27:12.745Z,1.77
2022-12-08T09:29:40.872Z,1.70
2022-12-08T09:32:08.892Z,1.73
2022-12-08T09:34:38.260Z,1.80
2022-12-08T09:37:06.307Z,1.80
2022-12-08T09:39:34.305Z,2.00
2022-12-08T09:42:03.683Z,2.07
2022-12-08T09:44:49.742Z,2.00
2022-12-08T09:47:22.517Z,2.50
2022-12-08T09:49:57.646Z,1.97
2022-12-08T09:52:30.698Z,3.10
2022-12-08T09:55:01.539Z,2.70
2022-12-08T09:57:30.866Z,4.10
2022-12-08T10:00:04.010Z,6.20
2022-12-08T10:02:33.607Z,3.10
2022-12-08T10:05:03.346Z,3.47
2022-12-08T10:07:42.963Z,4.40
2022-12-08T10:10:23.005Z,2.17
2022-12-08T10:12:59.551Z,2.00
2022-12-08T10:15:42.241Z,1.70
2022-12-08T10:18:16.375Z,2.10
2022-12-08T10:20:48.768Z,1.88
2022-12-08T10:23:26.818Z,1.67
2022-12-08T10:26:01.640Z,1.50
2022-12-08T10:28:29.772Z,1.50
2022-12-08T10:30:57.899Z,1.20
2022-12-08T10:33:26.146Z,1.33
2022-12-08T10:35:58.437Z,1.60
2022-12-08T10:38:30.736Z,1.65
2022-12-08T10:41:04.417Z,2.05
2022-12-08T10:43:33.934Z,1.52
2022-12-08T10:46:14.080Z,1.30
2022-12-08T10:48:51.546Z,1.58
2022-12-08T10:51:28.136Z,1.70
2022-12-08T10:53:56.503Z,1.80
2022-12-08T10:56:28.559Z,1.50
2022-12-08T10:59:14.424Z,1.50
2022-12-08T11:01:44.068Z,1.73
2022-12-08T11:04:16.648Z,1.75
2022-12-08T11:06:46.869Z,2.00
2022-12-08T11:09:41.195Z,1.58
2022-12-08T11:12:13.811Z,1.75
2022-12-08T11:14:50.394Z,1.80
2022-12-08T11:17:25.513Z,1.77
2022-12-08T11:19:58.922Z,1.63
2022-12-08T11:22:32.718Z,2.25
2022-12-08T11:25:04.013Z,2.20
2022-12-08T11:27:35.032Z,1.58
2022-12-08T11:30:07.212Z,1.88
2022-12-08T11:32:40.509Z,1.50
2022-12-08T11:35:11.328Z,1.70
2022-12-08T11:37:42.419Z,1.40
2022-12-08T11:40:17.553Z,1.30
2022-12-08T11:42:55.304Z,1.60
2022-12-08T11:45:27.811Z,1.52
2022-12-08T11:48:05.025Z,1.27
2022-12-08T11:50:41.193Z,1.67
2022-12-08T11:53:18.087Z,1.15
2022-12-08T11:55:51.531Z,1.30
2022-12-08T11:58:22.919Z,1.45
2022-12-08T12:00:51.395Z,1.70
2022-12-08T12:03:29.725Z,1.50
2022-12-08T12:09:17.586Z,1.60
2022-12-08T12:12:16.722Z,2.00
2022-12-08T12:15:23.264Z,1.75
2022-12-08T12:17:55.166Z,1.42
2022-12-08T12:20:28.612Z,1.52
2022-12-08T12:23:03.605Z,1.40
2022-12-08T12:25:34.641Z,1.30
2022-12-08T12:28:06.797Z,1.15
2022-12-08T12:30:53.555Z,1.23
2022-12-08T12:33:22.263Z,1.30
2022-12-08T12:35:50.775Z,1.30
2022-12-08T12:38:41.620Z,1.08
2022-12-08T12:41:14.354Z,1.17
2022-12-08T12:44:11.385Z,1.80
2022-12-08T12:46:54.465Z,1.50
2022-12-08T12:50:08.497Z,1.20
2022-12-08T12:52:44.213Z,1.23
2022-12-08T12:55:30.792Z,1.00
2022-12-08T12:58:00.351Z,1.23
2022-12-08T13:00:29.853Z,1.33
2022-12-08T13:02:59.371Z,1.25
2022-12-08T13:05:30.027Z,1.27
2022-12-08T13:08:01.171Z,1.20
2022-12-08T13:10:31.967Z,1.20
2022-12-08T13:13:06.632Z,1.40
2022-12-08T13:15:38.945Z,1.40
2022-12-08T13:18:08.343Z,1.40
2022-12-08T13:20:46.656Z,1.00
2022-12-08T13:23:28.247Z,1.60
2022-12-08T13:26:18.425Z,1.38
2022-12-08T13:29:15.062Z,1.75
2022-12-08T13:31:50.622Z,1.58
2022-12-08T13:34:22.958Z,1.30
2022-12-08T13:36:58.287Z,1.60
2022-12-08T13:39:30.573Z,1.60
2022-12-08T13:42:03.554Z,1.63
2022-12-08T13:45:18.740Z,1.30
2022-12-08T13:47:34.734Z,1.40
2022-12-08T13:58:40.035Z,1.27
2022-12-08T14:01:14.874Z,1.40
2022-12-08T14:04:20.457Z,1.48
2022-12-08T14:06:42.926Z,1.38
2022-12-08T14:09:16.005Z,1.20
2022-12-08T14:11:47.905Z,1.35
2022-12-08T14:14:32.806Z,1.50
2022-12-08T14:17:11.089Z,1.23
2022-12-08T14:19:41.098Z,1.25
2022-12-08T14:22:13.702Z,1.10
2022-12-08T14:24:46.062Z,1.30
2022-12-08T14:27:18.449Z,1.30
2022-12-08T14:29:48.535Z,1.35
2022-12-08T14:32:39.990Z,1.80
2022-12-08T14:35:21.085Z,1.10
2022-12-08T14:37:50.993Z,1.30
2022-12-08T14:40:23.874Z,1.63
2022-12-08T14:42:55.370Z,1.25
2022-12-08T14:45:23.435Z,1.30
2022-12-08T14:47:52.310Z,1.27
2022-12-08T14:50:42.896Z,1.30
2022-12-08T14:53:16.205Z,1.07
2022-12-08T14:55:46.289Z,1.37
2022-12-08T14:58:20.201Z,4.67
2022-12-08T15:00:51.494Z,2.30
2022-12-08T15:03:22.740Z,2.50
2022-12-08T15:05:54.206Z,1.30
2022-12-08T15:08:22.373Z,1.70
2022-12-08T15:11:18.877Z,1.67
2022-12-08T15:13:48.409Z,1.70
2022-12-08T15:16:26.525Z,1.57
2022-12-08T15:19:05.323Z,2.57
2022-12-08T15:21:39.205Z,1.77
2022-12-08T15:24:07.699Z,1.97
2022-12-08T15:26:40.615Z,1.40
2022-12-08T15:29:13.309Z,1.97
2022-12-08T15:31:41.452Z,1.23
2022-12-08T15:34:09.634Z,1.30
2022-12-08T15:36:40.048Z,1.40
2022-12-08T15:39:20.441Z,1.23
2022-12-08T15:41:48.453Z,1.30
2022-12-08T15:44:16.508Z,1.50
2022-12-08T15:46:44.615Z,1.27
2022-12-08T15:49:17.813Z,1.43
2022-12-08T15:51:47.981Z,2.30
2022-12-08T15:54:16.488Z,3.27
2022-12-08T15:57:10.840Z,4.27
2022-12-08T15:59:35.722Z,4.03
2022-12-08T16:02:03.902Z,3.93
2022-12-08T16:07:25.291Z,3.20
2022-12-08T16:09:53.895Z,3.50
2022-12-08T16:13:40.324Z,4.57
2022-12-08T16:18:24.755Z,5.17
2022-12-08T16:21:22.681Z,4.50
2022-12-08T16:23:45.655Z,4.83
2022-12-08T16:26:26.113Z,5.00
2022-12-08T16:29:05.143Z,5.07
2022-12-08T16:31:33.668Z,4.73
2022-12-08T16:34:01.868Z,5.03
2022-12-08T16:36:30.076Z,4.50
2022-12-08T16:38:59.482Z,5.27
2022-12-08T16:41:44.638Z,4.57
2022-12-08T16:44:12.789Z,4.27
2022-12-08T16:46:40.914Z,4.10
2022-12-08T16:49:10.256Z,4.13
2022-12-08T16:51:38.764Z,4.50
2022-12-08T16:54:08.148Z,4.83
2022-12-08T16:56:36.226Z,4.30
2022-12-08T16:59:04.414Z,5.40
2022-12-08T17:01:32.640Z,4.77
2022-12-08T17:04:30.050Z,4.97
2022-12-08T17:06:50.904Z,5.67
2022-12-08T17:09:20.551Z,5.00
2022-12-08T17:11:48.557Z,6.20
2022-12-08T17:14:17.482Z,6.13
2022-12-08T17:16:46.481Z,5.37
2022-12-08T17:19:15.987Z,5.43
2022-12-08T17:21:44.536Z,5.67
2022-12-08T17:24:15.865Z,5.43
2022-12-08T17:26:48.340Z,6.93
2022-12-08T17:29:18.669Z,5.93
2022-12-08T17:31:47.110Z,7.37
2022-12-08T17:34:15.298Z,23.97
2022-12-08T17:36:43.415Z,18.20
2022-12-08T17:39:18.257Z,12.23
2022-12-08T17:41:48.621Z,12.63
2022-12-08T17:44:18.849Z,12.37
2022-12-08T17:46:52.526Z,12.40
2022-12-08T17:49:23.472Z,12.10
2022-12-08T17:51:52.892Z,10.63
2022-12-08T17:54:21.256Z,10.73
2022-12-08T17:56:50.654Z,10.17
2022-12-08T17:59:19.070Z,9.93
2022-12-08T18:01:47.491Z,9.90
2022-12-08T18:04:15.631Z,9.93
2022-12-08T18:06:43.757Z,10.27
2022-12-08T18:09:12.074Z,10.30
2022-12-08T18:11:40.312Z,10.60
2022-12-08T18:14:10.707Z,10.13
2022-12-08T18:16:40.715Z,11.07
2022-12-08T18:19:09.910Z,11.70
2022-12-08T18:21:38.097Z,11.87
2022-12-08T18:24:07.049Z,11.27
2022-12-08T18:26:35.233Z,12.20
2022-12-08T18:29:03.414Z,12.57
2022-12-08T18:31:32.859Z,11.83
2022-12-08T18:34:00.945Z,11.20
2022-12-08T18:36:28.958Z,10.70
2022-12-08T18:38:57.094Z,11.30
2022-12-08T18:41:26.817Z,10.90
2022-12-08T18:43:55.650Z,12.67
2022-12-08T18:46:24.456Z,11.50
2022-12-08T18:48:54.335Z,12.30
2022-12-08T18:51:24.864Z,13.10
2022-12-08T18:53:53.634Z,12.80
2022-12-08T18:56:24.224Z,14.33
2022-12-08T18:58:57.290Z,13.83
2022-12-08T19:01:28.568Z,12.50
2022-12-08T19:04:26.878Z,13.33
2022-12-08T19:06:47.207Z,13.20
2022-12-08T19:09:15.884Z,13.73
2022-12-08T19:11:44.383Z,13.50
2022-12-08T19:14:13.932Z,12.77
2022-12-08T19:16:42.012Z,15.03
2022-12-08T19:19:11.529Z,14.73
2022-12-08T19:21:44.719Z,15.17
2022-12-08T19:24:14.336Z,12.73
2022-12-08T19:26:42.784Z,14.27
2022-12-08T19:29:11.206Z,15.70
2022-12-08T19:31:39.505Z,13.63
2022-12-08T19:34:09.188Z,16.17
2022-12-08T19:36:42.717Z,15.80
2022-12-08T19:39:33.549Z,16.63
2022-12-08T19:42:18.880Z,15.63
2022-12-08T19:44:56.048Z,15.90
2022-12-08T19:47:25.790Z,16.53
2022-12-08T19:49:54.855Z,16.63
2022-12-08T19:52:24.306Z,16.63
2022-12-08T19:54:52.362Z,16.57
2022-12-08T19:57:20.483Z,15.67
2022-12-08T19:59:54.611Z,14.90
2022-12-08T20:02:24.527Z,14.63
2022-12-08T20:04:52.819Z,15.17
2022-12-08T20:07:20.880Z,15.23
2022-12-08T20:09:50.333Z,14.73
2022-12-08T20:12:18.346Z,14.87
2022-12-08T20:14:46.580Z,15.80
2022-12-08T20:17:14.784Z,15.63
2022-12-08T20:19:42.880Z,15.40
2022-12-08T20:22:10.993Z,15.63
2022-12-08T20:24:39.202Z,14.27
2022-12-08T20:27:08.809Z,14.77
2022-12-08T20:29:37.130Z,16.27
2022-12-08T20:32:05.379Z,16.77
2022-12-08T20:34:34.571Z,17.23
2022-12-08T20:37:02.636Z,19.63
2022-12-08T20:39:30.824Z,21.17
2022-12-08T20:42:00.134Z,22.17
2022-12-08T20:44:30.279Z,19.07
2022-12-08T20:46:58.451Z,19.53
2022-12-08T20:49:32.774Z,19.73
2022-12-08T20:52:02.587Z,18.03
2022-12-08T20:54:30.845Z,18.23
2022-12-08T20:56:59.050Z,18.03
2022-12-08T20:59:27.474Z,16.87
2022-12-08T21:01:57.238Z,18.07
2022-12-08T21:04:25.856Z,18.77
2022-12-08T21:06:53.995Z,18.83
2022-12-08T21:09:22.428Z,18.03
2022-12-08T21:11:50.666Z,18.87
2022-12-08T21:14:18.910Z,18.30
2022-12-08T21:16:47.219Z,18.13
2022-12-08T21:19:18.252Z,18.93
2022-12-08T21:21:47.036Z,21.53
2022-12-08T21:24:15.795Z,19.03
2022-12-08T21:26:44.538Z,18.37
2022-12-08T21:29:13.393Z,18.13
2022-12-08T21:31:41.950Z,18.90
2022-12-08T21:34:12.178Z,19.33
2022-12-08T21:36:42.108Z,16.80
2022-12-08T21:39:12.836Z,18.17
2022-12-08T21:41:58.352Z,19.03
2022-12-08T21:44:26.504Z,17.73
2022-12-08T21:46:55.134Z,17.77
2022-12-08T21:49:23.250Z,18.27
2022-12-08T21:51:52.837Z,17.33
2022-12-08T21:54:20.927Z,18.00
2022-12-08T21:56:50.419Z,17.03
2022-12-08T21:59:19.775Z,18.13
2022-12-08T22:01:48.479Z,16.27
2022-12-08T22:04:19.009Z,17.20
2022-12-08T22:06:47.164Z,16.70
2022-12-08T22:09:16.927Z,17.77
2022-12-08T22:11:45.281Z,17.77
2022-12-08T22:14:15.085Z,15.87
2022-12-08T22:16:44.068Z,15.93
2022-12-08T22:19:13.192Z,15.60
2022-12-08T22:21:41.543Z,16.80
2022-12-08T22:24:09.932Z,16.77
2022-12-08T22:26:39.348Z,16.87
2022-12-08T22:29:07.379Z,16.30
2022-12-08T22:31:35.492Z,15.90
2022-12-08T22:34:03.824Z,15.47
2022-12-08T22:36:31.891Z,14.47
2022-12-08T22:39:00.069Z,13.97
2022-12-08T22:41:28.457Z,15.30
2022-12-08T22:43:57.871Z,15.27
2022-12-08T22:46:27.495Z,14.57
2022-12-08T22:48:55.907Z,14.57
2022-12-08T22:51:23.930Z,14.27
2022-12-08T22:53:52.034Z,13.07
2022-12-08T22:56:20.751Z,14.70
2022-12-08T22:58:49.341Z,13.93
2022-12-08T23:01:27.237Z,14.10
2022-12-08T23:03:55.757Z,13.97
2022-12-08T23:06:24.035Z,13.20
2022-12-08T23:08:52.431Z,13.30
2022-12-08T23:11:22.077Z,12.67
2022-12-08T23:13:50.288Z,13.37
2022-12-08T23:16:18.580Z,14.23
2022-12-08T23:18:48.541Z,13.67
2022-12-08T23:21:19.568Z,12.77
2022-12-08T23:23:48.268Z,12.80
2022-12-08T23:26:19.009Z,13.57
2022-12-08T23:28:47.440Z,12.43
2022-12-08T23:31:16.475Z,12.47
2022-12-08T23:33:45.267Z,11.57
2022-12-08T23:36:16.063Z,11.67
2022-12-08T23:38:44.526Z,12.67
2022-12-08T23:41:14.285Z,12.67
2022-12-08T23:43:46.268Z,12.80
2022-12-08T23:46:15.207Z,12.33
2022-12-08T23:48:43.766Z,12.27
2022-12-08T23:51:12.276Z,13.43
2022-12-08T23:53:42.259Z,12.20
2022-12-08T23:56:12.781Z,11.63
2022-12-08T23:58:41.674Z,11.90
